Time;durP1;ratioP1;P1;durP2;ratioP2;P2;SDS_P1;SDS_P2;PMS_P1;PMS_P2;Temp;Humidity;BMP_temperature;BMP_pressure;BME280_temperature;BME280_humidity;BME280_pressure;Samples;Min_cycle;Max_cycle;Signal;HPM_P1;HPM_P2
2021/08/08 00:00:05;;;;;;;2.20;0.40;;;;;;;;;;5051763;28;20465;-64
2021/08/08 00:02:36;;;;;;;2.20;0.40;;;;;;;;;;5052659;28;20564;-64
2021/08/08 00:05:02;;;;;;;2.30;0.40;;;;;;;;;;5052476;28;20413;-64
2021/08/08 00:07:28;;;;;;;2.30;0.40;;;;;;;;;;5052465;28;20430;-62
2021/08/08 00:09:54;;;;;;;2.30;0.40;;;;;;;;;;5052350;28;20414;-63
2021/08/08 00:12:20;;;;;;;2.10;0.40;;;;;;;;;;5052631;28;20420;-63
2021/08/08 00:14:46;;;;;;;2.00;0.40;;;;;;;;;;5052439;28;20407;-62
2021/08/08 00:17:12;;;;;;;1.80;0.30;;;;;;;;;;5052400;28;20434;-62
2021/08/08 00:19:38;;;;;;;1.90;0.40;;;;;;;;;;5051923;28;20437;-63
2021/08/08 00:22:04;;;;;;;1.80;0.30;;;;;;;;;;5052421;28;20396;-64
2021/08/08 00:24:30;;;;;;;1.67;0.40;;;;;;;;;;5052319;28;20414;-62
2021/08/08 00:26:56;;;;;;;1.57;0.30;;;;;;;;;;5052119;28;20515;-63
2021/08/08 00:29:22;;;;;;;1.40;0.40;;;;;;;;;;5051815;28;20407;-63
2021/08/08 00:31:48;;;;;;;1.20;0.40;;;;;;;;;;5034731;28;20414;-62
2021/08/08 00:34:14;;;;;;;0.70;0.30;;;;;;;;;;5052032;28;20477;-62
2021/08/08 00:36:40;;;;;;;0.50;0.30;;;;;;;;;;5051934;28;20479;-62
2021/08/08 00:39:06;;;;;;;0.50;0.40;;;;;;;;;;5051941;28;20390;-62
2021/08/08 00:41:32;;;;;;;0.50;0.30;;;;;;;;;;5051954;28;20468;-62
2021/08/08 00:43:58;;;;;;;0.40;0.30;;;;;;;;;;5051757;28;20172;-62
2021/08/08 00:46:24;;;;;;;0.40;0.30;;;;;;;;;;5051799;28;20443;-62
2021/08/08 00:48:50;;;;;;;0.40;0.40;;;;;;;;;;5051605;28;20402;-62
2021/08/08 00:51:16;;;;;;;0.40;0.30;;;;;;;;;;5034344;28;20752;-64
2021/08/08 00:53:42;;;;;;;0.40;0.30;;;;;;;;;;5051835;28;20417;-65
2021/08/08 00:56:08;;;;;;;0.40;0.30;;;;;;;;;;5051773;28;20442;-64
2021/08/08 00:58:34;;;;;;;0.40;0.40;;;;;;;;;;5051500;28;20847;-65
2021/08/08 01:01:01;;;;;;;0.40;0.30;;;;;;;;;;5051693;28;20947;-65
2021/08/08 01:03:28;;;;;;;0.40;0.30;;;;;;;;;;5017383;28;20480;-65
2021/08/08 01:06:08;;;;;;;0.40;0.30;;;;;;;;;;5051524;28;20469;-65
2021/08/08 01:08:35;;;;;;;0.40;0.30;;;;;;;;;;5051327;28;20523;-64
2021/08/08 01:11:02;;;;;;;0.40;0.30;;;;;;;;;;5051486;28;20380;-65
2021/08/08 01:13:28;;;;;;;0.40;0.40;;;;;;;;;;5051498;28;20388;-65
2021/08/08 01:15:54;;;;;;;0.40;0.30;;;;;;;;;;5051454;28;20442;-64
2021/08/08 01:18:20;;;;;;;0.40;0.30;;;;;;;;;;5051252;28;20944;-65
2021/08/08 01:20:47;;;;;;;0.40;0.30;;;;;;;;;;5051456;28;20384;-65
2021/08/08 01:23:14;;;;;;;0.40;0.30;;;;;;;;;;5051461;28;20773;-64
2021/08/08 01:25:41;;;;;;;0.40;0.30;;;;;;;;;;5051456;28;20528;-65
2021/08/08 01:28:08;;;;;;;0.40;0.30;;;;;;;;;;5051324;28;20462;-62
2021/08/08 01:30:34;;;;;;;2.40;0.40;;;;;;;;;;5051087;28;20415;-65
2021/08/08 01:33:01;;;;;;;0.70;0.30;;;;;;;;;;5051012;28;20843;-65
2021/08/08 01:35:27;;;;;;;0.50;0.30;;;;;;;;;;5051643;28;20458;-64
2021/08/08 01:37:53;;;;;;;0.40;0.30;;;;;;;;;;5051325;28;20425;-64
2021/08/08 01:40:26;;;;;;;0.40;0.30;;;;;;;;;;5050900;28;20846;-64
2021/08/08 01:42:54;;;;;;;0.40;0.30;;;;;;;;;;5051219;28;20773;-64
2021/08/08 01:45:20;;;;;;;0.40;0.40;;;;;;;;;;5051175;28;20468;-64
2021/08/08 01:47:49;;;;;;;0.40;0.40;;;;;;;;;;5051196;28;20430;-64
2021/08/08 01:50:15;;;;;;;0.40;0.30;;;;;;;;;;5051001;28;20463;-65
2021/08/08 01:52:41;;;;;;;0.40;0.30;;;;;;;;;;5051205;28;20890;-64
2021/08/08 01:55:07;;;;;;;0.40;0.30;;;;;;;;;;5051639;28;20394;-63
2021/08/08 01:57:34;;;;;;;0.40;0.30;;;;;;;;;;5050830;28;20416;-64
2021/08/08 02:00:00;;;;;;;0.40;0.40;;;;;;;;;;5050316;28;20377;-65
2021/08/08 02:02:26;;;;;;;0.40;0.30;;;;;;;;;;5033100;28;20414;-65
2021/08/08 02:04:52;;;;;;;0.40;0.30;;;;;;;;;;5051092;28;20456;-64
2021/08/08 02:07:18;;;;;;;0.40;0.30;;;;;;;;;;5050931;28;21190;-65
2021/08/08 02:09:45;;;;;;;0.40;0.30;;;;;;;;;;5050735;28;20405;-64
2021/08/08 02:12:11;;;;;;;0.40;0.40;;;;;;;;;;5050531;28;20422;-65
2021/08/08 02:14:38;;;;;;;3.10;0.40;;;;;;;;;;5050997;28;20434;-65
2021/08/08 02:17:04;;;;;;;2.97;0.40;;;;;;;;;;5050885;28;20780;-64
2021/08/08 02:19:30;;;;;;;2.80;0.40;;;;;;;;;;5050573;28;20415;-65
2021/08/08 02:21:57;;;;;;;2.50;0.40;;;;;;;;;;5050913;28;20421;-64
2021/08/08 02:24:23;;;;;;;2.37;0.40;;;;;;;;;;5054394;28;20392;-64
2021/08/08 02:26:49;;;;;;;2.20;0.40;;;;;;;;;;5054286;28;20895;-65
2021/08/08 02:29:15;;;;;;;2.10;0.40;;;;;;;;;;5054178;28;20173;-64
2021/08/08 02:31:43;;;;;;;2.07;0.40;;;;;;;;;;5036391;28;20655;-65
2021/08/08 02:34:10;;;;;;;1.90;0.40;;;;;;;;;;5054043;28;20445;-64
2021/08/08 02:36:36;;;;;;;1.80;0.40;;;;;;;;;;5053700;28;20496;-64
2021/08/08 02:39:02;;;;;;;1.80;0.40;;;;;;;;;;5053929;28;20385;-64
2021/08/08 02:41:28;;;;;;;1.60;0.40;;;;;;;;;;5054098;28;20410;-64
2021/08/08 02:43:55;;;;;;;1.50;0.30;;;;;;;;;;5054132;28;20538;-65
2021/08/08 02:46:21;;;;;;;1.50;0.40;;;;;;;;;;5053945;28;20486;-64
2021/08/08 02:48:47;;;;;;;1.70;0.40;;;;;;;;;;5053822;28;20398;-65
2021/08/08 02:51:13;;;;;;;1.60;0.40;;;;;;;;;;5053987;28;20414;-64
2021/08/08 02:53:39;;;;;;;1.57;0.40;;;;;;;;;;5053667;28;20389;-65
2021/08/08 02:56:05;;;;;;;1.50;0.40;;;;;;;;;;5053964;28;20419;-64
2021/08/08 02:58:32;;;;;;;1.40;0.40;;;;;;;;;;5053477;28;20803;-64
2021/08/08 03:00:58;;;;;;;1.30;0.40;;;;;;;;;;5053939;28;20441;-64
2021/08/08 03:03:24;;;;;;;1.40;0.40;;;;;;;;;;5053095;28;20418;-64
2021/08/08 03:05:50;;;;;;;1.30;0.40;;;;;;;;;;5053696;28;20957;-64
2021/08/08 03:08:16;;;;;;;1.30;0.40;;;;;;;;;;5053282;28;20401;-65
2021/08/08 03:10:42;;;;;;;1.20;0.30;;;;;;;;;;5054593;28;20413;-64
2021/08/08 03:13:08;;;;;;;1.20;0.40;;;;;;;;;;5053663;28;20399;-64
2021/08/08 03:15:34;;;;;;;1.20;0.40;;;;;;;;;;5053503;28;20883;-62
2021/08/08 03:18:00;;;;;;;1.10;0.40;;;;;;;;;;5053501;28;20436;-63
2021/08/08 03:20:26;;;;;;;1.00;0.40;;;;;;;;;;5053334;28;20179;-61
2021/08/08 03:22:52;;;;;;;0.90;0.40;;;;;;;;;;5053504;28;20400;-64
2021/08/08 03:25:18;;;;;;;0.80;0.40;;;;;;;;;;5053339;28;20182;-63
2021/08/08 03:27:45;;;;;;;0.80;0.40;;;;;;;;;;5053212;28;20406;-64
2021/08/08 03:30:11;;;;;;;1.10;0.40;;;;;;;;;;5053262;28;20399;-64
2021/08/08 03:32:37;;;;;;;1.00;0.40;;;;;;;;;;5053300;28;20401;-63
2021/08/08 03:35:04;;;;;;;0.90;0.40;;;;;;;;;;5052215;28;20764;-64
2021/08/08 03:37:30;;;;;;;0.60;0.40;;;;;;;;;;5053131;28;20429;-64
2021/08/08 03:39:56;;;;;;;1.47;0.40;;;;;;;;;;5035168;28;20401;-63
2021/08/08 03:42:22;;;;;;;1.20;0.40;;;;;;;;;;5052955;28;20384;-64
2021/08/08 03:44:50;;;;;;;1.40;0.40;;;;;;;;;;5052994;28;20629;-64
2021/08/08 03:47:18;;;;;;;1.37;0.40;;;;;;;;;;5053192;28;20459;-64
2021/08/08 03:49:44;;;;;;;0.30;0.30;;;;;;;;;;5052713;28;20429;-64
2021/08/08 03:52:10;;;;;;;0.63;0.33;;;;;;;;;;5052972;28;20410;-63
2021/08/08 03:54:36;;;;;;;0.90;0.33;;;;;;;;;;5052843;28;20406;-64
2021/08/08 03:57:02;;;;;;;0.37;0.37;;;;;;;;;;5080358;22;20486;-64
2021/08/08 03:59:28;;;;;;;0.30;0.30;;;;;;;;;;5091814;28;20515;-62
2021/08/08 04:01:54;;;;;;;0.30;0.30;;;;;;;;;;5092732;28;20481;-62
2021/08/08 04:04:20;;;;;;;0.30;0.30;;;;;;;;;;5092885;28;20944;-65
2021/08/08 04:06:46;;;;;;;0.30;0.30;;;;;;;;;;5092695;28;20461;-62
2021/08/08 04:09:12;;;;;;;0.30;0.30;;;;;;;;;;5092359;28;20464;-62
2021/08/08 04:11:38;;;;;;;0.30;0.30;;;;;;;;;;5092640;28;20407;-62
2021/08/08 04:14:04;;;;;;;0.30;0.30;;;;;;;;;;5092704;28;20413;-62
2021/08/08 04:16:30;;;;;;;0.30;0.30;;;;;;;;;;5092608;28;20400;-62
2021/08/08 04:18:56;;;;;;;0.30;0.30;;;;;;;;;;5092283;28;20434;-64
2021/08/08 04:21:22;;;;;;;0.30;0.30;;;;;;;;;;5093106;28;20412;-62
2021/08/08 04:23:48;;;;;;;0.40;0.40;;;;;;;;;;5092349;28;20638;-62
2021/08/08 04:26:14;;;;;;;0.30;0.30;;;;;;;;;;5092355;28;20459;-63
2021/08/08 04:28:41;;;;;;;0.30;0.30;;;;;;;;;;5092098;28;20463;-62
2021/08/08 04:31:10;;;;;;;0.40;0.40;;;;;;;;;;5092404;28;20167;-63
2021/08/08 04:33:37;;;;;;;0.30;0.30;;;;;;;;;;5092304;28;20168;-62
2021/08/08 04:36:04;;;;;;;0.40;0.40;;;;;;;;;;5092272;28;20405;-62
2021/08/08 04:38:30;;;;;;;0.30;0.30;;;;;;;;;;5073625;28;20215;-63
2021/08/08 04:40:56;;;;;;;0.30;0.30;;;;;;;;;;5092073;28;20170;-63
2021/08/08 04:43:22;;;;;;;0.30;0.30;;;;;;;;;;5092084;28;20434;-63
2021/08/08 04:45:48;;;;;;;0.30;0.30;;;;;;;;;;5091781;28;20279;-62
2021/08/08 04:48:14;;;;;;;0.30;0.30;;;;;;;;;;5092273;28;20988;-63
2021/08/08 04:50:40;;;;;;;0.30;0.30;;;;;;;;;;5091809;28;20376;-63
2021/08/08 04:53:12;;;;;;;0.30;0.30;;;;;;;;;;5091906;28;20405;-63
2021/08/08 04:55:38;;;;;;;0.30;0.30;;;;;;;;;;5091971;28;20201;-63
2021/08/08 04:58:04;;;;;;;0.30;0.30;;;;;;;;;;5091324;28;20476;-62
2021/08/08 05:00:30;;;;;;;0.40;0.40;;;;;;;;;;5091685;28;20464;-63
2021/08/08 05:02:56;;;;;;;0.30;0.30;;;;;;;;;;5091857;28;20906;-63
2021/08/08 05:05:22;;;;;;;0.40;0.40;;;;;;;;;;5091713;28;20414;-63
2021/08/08 05:07:48;;;;;;;0.40;0.40;;;;;;;;;;5091757;28;20270;-63
2021/08/08 05:10:16;;;;;;;0.30;0.30;;;;;;;;;;5091580;28;20719;-63
2021/08/08 05:12:42;;;;;;;0.30;0.30;;;;;;;;;;5091874;28;20409;-63
2021/08/08 05:15:09;;;;;;;0.30;0.30;;;;;;;;;;5091669;28;20408;-63
2021/08/08 05:17:35;;;;;;;0.30;0.30;;;;;;;;;;5091655;28;20538;-62
2021/08/08 05:20:01;;;;;;;0.30;0.30;;;;;;;;;;5091553;28;20410;-63
2021/08/08 05:22:27;;;;;;;0.30;0.30;;;;;;;;;;5091878;28;20251;-63
2021/08/08 05:24:53;;;;;;;0.30;0.30;;;;;;;;;;5091723;28;20393;-63
2021/08/08 05:27:19;;;;;;;0.30;0.30;;;;;;;;;;5091863;28;20519;-63
2021/08/08 05:29:45;;;;;;;0.30;0.30;;;;;;;;;;5091640;28;20404;-63
2021/08/08 05:32:11;;;;;;;0.40;0.40;;;;;;;;;;5091648;28;20436;-63
2021/08/08 05:34:37;;;;;;;0.30;0.30;;;;;;;;;;5091856;28;20461;-63
2021/08/08 05:37:03;;;;;;;0.30;0.30;;;;;;;;;;5091709;28;20463;-63
2021/08/08 05:39:29;;;;;;;0.30;0.30;;;;;;;;;;5091003;28;20430;-63
2021/08/08 05:41:55;;;;;;;0.30;0.30;;;;;;;;;;5091445;28;20453;-63
2021/08/08 05:44:21;;;;;;;0.30;0.30;;;;;;;;;;5091216;28;20451;-63
2021/08/08 05:46:47;;;;;;;0.30;0.30;;;;;;;;;;5091468;28;20533;-63
2021/08/08 05:49:13;;;;;;;0.40;0.40;;;;;;;;;;5090709;28;20420;-62
2021/08/08 05:51:41;;;;;;;0.30;0.30;;;;;;;;;;5091383;28;20838;-63
2021/08/08 05:54:07;;;;;;;0.30;0.30;;;;;;;;;;5090853;28;20584;-63
2021/08/08 05:56:33;;;;;;;0.30;0.30;;;;;;;;;;5091125;28;20948;-63
2021/08/08 05:58:59;;;;;;;0.30;0.30;;;;;;;;;;5093722;28;20490;-62
2021/08/08 06:01:25;;;;;;;0.30;0.30;;;;;;;;;;5094771;28;20220;-63
2021/08/08 06:03:51;;;;;;;0.30;0.30;;;;;;;;;;5094941;28;21067;-63
2021/08/08 06:06:17;;;;;;;0.30;0.30;;;;;;;;;;5095074;28;20453;-63
2021/08/08 06:08:43;;;;;;;0.30;0.30;;;;;;;;;;5094323;28;20440;-62
2021/08/08 06:11:09;;;;;;;0.40;0.30;;;;;;;;;;5094940;28;20414;-63
2021/08/08 06:13:36;;;;;;;0.30;0.30;;;;;;;;;;5094771;28;20428;-63
2021/08/08 06:16:02;;;;;;;0.30;0.30;;;;;;;;;;5094798;28;20556;-63
2021/08/08 06:18:28;;;;;;;0.30;0.30;;;;;;;;;;5094237;28;20448;-62
2021/08/08 06:20:54;;;;;;;0.30;0.30;;;;;;;;;;5094488;28;20447;-63
2021/08/08 06:23:20;;;;;;;0.30;0.30;;;;;;;;;;5094798;28;20379;-63
2021/08/08 06:25:46;;;;;;;0.30;0.30;;;;;;;;;;5094560;28;20280;-63
2021/08/08 06:28:12;;;;;;;0.30;0.30;;;;;;;;;;5094366;28;20232;-63
2021/08/08 06:30:38;;;;;;;0.40;0.30;;;;;;;;;;5093759;28;20419;-63
2021/08/08 06:33:04;;;;;;;0.40;0.30;;;;;;;;;;5094584;28;20175;-63
2021/08/08 06:35:30;;;;;;;0.40;0.30;;;;;;;;;;5093986;28;20425;-63
2021/08/08 06:37:56;;;;;;;0.40;0.30;;;;;;;;;;5094056;28;20436;-63
2021/08/08 06:40:22;;;;;;;0.40;0.30;;;;;;;;;;5094110;28;20588;-63
2021/08/08 06:42:48;;;;;;;0.40;0.30;;;;;;;;;;5094494;28;20412;-63
2021/08/08 06:45:14;;;;;;;0.30;0.30;;;;;;;;;;5093881;28;20435;-63
2021/08/08 06:47:39;;;;;;;0.40;0.30;;;;;;;;;;5094335;28;20425;-63
2021/08/08 06:50:06;;;;;;;0.40;0.30;;;;;;;;;;5093772;28;20424;-63
2021/08/08 06:52:31;;;;;;;0.40;0.30;;;;;;;;;;5094221;28;20404;-63
2021/08/08 06:54:57;;;;;;;0.30;0.30;;;;;;;;;;5093703;28;20420;-63
2021/08/08 06:57:24;;;;;;;0.40;0.30;;;;;;;;;;5093716;28;20452;-63
2021/08/08 06:59:50;;;;;;;0.40;0.30;;;;;;;;;;5093819;28;20919;-63
2021/08/08 07:02:16;;;;;;;0.30;0.30;;;;;;;;;;5093676;28;20424;-63
2021/08/08 07:04:42;;;;;;;0.30;0.30;;;;;;;;;;5093985;28;20386;-63
2021/08/08 07:07:08;;;;;;;0.40;0.30;;;;;;;;;;5093525;28;20516;-63
2021/08/08 07:09:34;;;;;;;0.40;0.30;;;;;;;;;;5091560;28;20416;-63
2021/08/08 07:12:00;;;;;;;0.40;0.30;;;;;;;;;;5092838;28;20416;-63
2021/08/08 07:14:31;;;;;;;0.40;0.30;;;;;;;;;;5092996;28;20388;-63
2021/08/08 07:16:57;;;;;;;0.40;0.30;;;;;;;;;;5093565;28;20413;-63
2021/08/08 07:19:23;;;;;;;0.40;0.30;;;;;;;;;;5093207;28;20503;-63
2021/08/08 07:21:49;;;;;;;0.40;0.30;;;;;;;;;;5093434;28;20408;-63
2021/08/08 07:24:15;;;;;;;0.40;0.30;;;;;;;;;;5093224;28;20959;-63
2021/08/08 07:26:41;;;;;;;0.40;0.30;;;;;;;;;;5092534;28;20529;-63
2021/08/08 07:29:07;;;;;;;0.40;0.30;;;;;;;;;;5091104;28;20399;-63
2021/08/08 07:31:33;;;;;;;0.30;0.30;;;;;;;;;;5090721;28;20746;-63
2021/08/08 07:33:59;;;;;;;0.30;0.30;;;;;;;;;;5091717;28;20394;-63
2021/08/08 07:36:25;;;;;;;0.30;0.30;;;;;;;;;;5092213;28;20432;-63
2021/08/08 07:38:51;;;;;;;0.30;0.30;;;;;;;;;;5092103;28;20425;-63
2021/08/08 07:41:17;;;;;;;0.30;0.30;;;;;;;;;;5093156;28;20397;-63
2021/08/08 07:43:43;;;;;;;0.30;0.27;;;;;;;;;;5092726;28;20459;-63
2021/08/08 07:46:09;;;;;;;0.30;0.30;;;;;;;;;;5083499;28;20692;-63
2021/08/08 07:48:35;;;;;;;0.30;0.20;;;;;;;;;;5092438;28;20823;-63
2021/08/08 07:51:01;;;;;;;0.30;0.20;;;;;;;;;;5092327;28;20907;-63
2021/08/08 07:53:27;;;;;;;0.30;0.30;;;;;;;;;;5092960;28;20405;-63
2021/08/08 07:55:56;;;;;;;0.30;0.20;;;;;;;;;;5092362;28;20416;-63
2021/08/08 07:58:23;;;;;;;0.20;0.20;;;;;;;;;;5091960;28;20455;-63
2021/08/08 08:00:49;;;;;;;0.20;0.20;;;;;;;;;;5092238;28;20432;-63
2021/08/08 08:03:15;;;;;;;0.20;0.20;;;;;;;;;;5092585;28;20425;-63
2021/08/08 08:05:41;;;;;;;0.20;0.20;;;;;;;;;;5091881;28;20484;-63
2021/08/08 08:08:07;;;;;;;0.30;0.30;;;;;;;;;;5092538;28;20442;-63
2021/08/08 08:10:35;;;;;;;0.30;0.30;;;;;;;;;;5090795;28;20717;-63
2021/08/08 08:13:01;;;;;;;0.30;0.30;;;;;;;;;;5091352;28;20417;-63
2021/08/08 08:15:28;;;;;;;0.30;0.30;;;;;;;;;;5091787;28;20482;-63
2021/08/08 08:17:54;;;;;;;0.20;0.20;;;;;;;;;;5091031;28;20917;-63
2021/08/08 08:20:20;;;;;;;0.30;0.30;;;;;;;;;;5090477;28;20471;-63
2021/08/08 08:22:46;;;;;;;0.20;0.20;;;;;;;;;;5091305;28;20826;-63
2021/08/08 08:25:12;;;;;;;0.30;0.30;;;;;;;;;;5082080;28;20388;-63
2021/08/08 08:27:39;;;;;;;0.30;0.30;;;;;;;;;;5071545;28;20896;-63
2021/08/08 08:30:06;;;;;;;0.20;0.20;;;;;;;;;;5081929;28;20988;-63
2021/08/08 08:32:32;;;;;;;0.20;0.20;;;;;;;;;;5091855;28;20785;-63
2021/08/08 08:35:04;;;;;;;0.20;0.20;;;;;;;;;;5091427;28;20836;-63
2021/08/08 08:37:34;;;;;;;0.20;0.20;;;;;;;;;;5090996;28;20475;-64
2021/08/08 08:40:00;;;;;;;0.20;0.20;;;;;;;;;;5083640;28;20489;-64
2021/08/08 08:42:30;;;;;;;0.20;0.20;;;;;;;;;;5072281;28;20944;-64
2021/08/08 08:44:56;;;;;;;0.20;0.20;;;;;;;;;;5071189;28;20819;-64
2021/08/08 08:47:22;;;;;;;0.20;0.20;;;;;;;;;;5071292;28;20465;-64
2021/08/08 08:49:49;;;;;;;0.20;0.20;;;;;;;;;;5089613;28;20424;-64
2021/08/08 08:52:23;;;;;;;0.30;0.20;;;;;;;;;;5090852;28;20413;-64
2021/08/08 08:54:49;;;;;;;0.40;0.20;;;;;;;;;;5091018;28;20773;-64
2021/08/08 08:57:16;;;;;;;0.30;0.20;;;;;;;;;;5072279;28;20866;-63
2021/08/08 08:59:44;;;;;;;0.30;0.20;;;;;;;;;;5091280;28;20505;-63
2021/08/08 09:02:10;;;;;;;0.20;0.20;;;;;;;;;;5090949;28;20804;-63
2021/08/08 09:04:36;;;;;;;0.20;0.20;;;;;;;;;;5090903;28;20449;-64
2021/08/08 09:07:03;;;;;;;0.20;0.20;;;;;;;;;;5090830;28;20456;-63
2021/08/08 09:09:29;;;;;;;0.40;0.30;;;;;;;;;;5090638;28;20405;-63
2021/08/08 09:11:55;;;;;;;0.40;0.30;;;;;;;;;;5091412;28;20375;-64
2021/08/08 09:14:22;;;;;;;0.57;0.30;;;;;;;;;;5091425;28;20408;-64
2021/08/08 09:16:52;;;;;;;0.20;0.20;;;;;;;;;;5091056;28;20408;-64
2021/08/08 09:19:18;;;;;;;0.20;0.20;;;;;;;;;;5090518;28;20461;-64
2021/08/08 09:21:44;;;;;;;0.20;0.20;;;;;;;;;;5091468;28;20390;-64
2021/08/08 09:24:10;;;;;;;0.20;0.20;;;;;;;;;;5091432;28;20896;-64
2021/08/08 09:26:37;;;;;;;0.20;0.20;;;;;;;;;;5091343;28;20970;-65
2021/08/08 09:29:11;;;;;;;0.20;0.20;;;;;;;;;;5090487;28;20512;-63
2021/08/08 09:31:45;;;;;;;0.20;0.20;;;;;;;;;;5090097;28;20498;-62
2021/08/08 09:34:24;;;;;;;0.20;0.20;;;;;;;;;;5092833;28;20419;-62
2021/08/08 09:36:50;;;;;;;0.20;0.20;;;;;;;;;;5090171;28;20416;-62
2021/08/08 09:39:30;;;;;;;0.20;0.20;;;;;;;;;;5090941;28;20901;-64
2021/08/08 09:42:05;;;;;;;0.20;0.20;;;;;;;;;;5094652;28;20431;-64
2021/08/08 09:44:31;;;;;;;0.20;0.20;;;;;;;;;;5085557;28;20414;-64
2021/08/08 09:46:58;;;;;;;0.20;0.20;;;;;;;;;;5091982;28;20467;-64
2021/08/08 09:49:24;;;;;;;0.20;0.20;;;;;;;;;;5094334;28;20923;-64
2021/08/08 09:51:51;;;;;;;0.20;0.20;;;;;;;;;;5091341;28;20416;-64
2021/08/08 09:54:17;;;;;;;0.20;0.20;;;;;;;;;;5091973;28;20416;-64
2021/08/08 09:56:43;;;;;;;0.20;0.20;;;;;;;;;;5094379;28;20455;-64
2021/08/08 09:59:09;;;;;;;0.20;0.20;;;;;;;;;;5095132;28;20988;-64
2021/08/08 10:01:39;;;;;;;0.20;0.20;;;;;;;;;;5094496;28;20424;-64
2021/08/08 10:04:05;;;;;;;0.20;0.20;;;;;;;;;;5093938;28;20405;-64
2021/08/08 10:06:32;;;;;;;0.20;0.20;;;;;;;;;;5093616;28;21240;-64
2021/08/08 10:08:58;;;;;;;0.20;0.20;;;;;;;;;;5094733;28;20428;-64
2021/08/08 10:11:24;;;;;;;0.20;0.20;;;;;;;;;;5094925;28;20425;-64
2021/08/08 10:13:56;;;;;;;0.20;0.20;;;;;;;;;;5094902;28;20451;-64
2021/08/08 10:16:23;;;;;;;0.20;0.20;;;;;;;;;;5094573;28;20768;-64
2021/08/08 10:18:55;;;;;;;0.20;0.20;;;;;;;;;;5094385;28;20515;-64
2021/08/08 10:21:21;;;;;;;0.20;0.20;;;;;;;;;;5092989;28;20410;-64
2021/08/08 10:23:48;;;;;;;0.20;0.20;;;;;;;;;;5092933;28;20422;-64
2021/08/08 10:26:14;;;;;;;0.20;0.20;;;;;;;;;;5094183;28;20445;-64
2021/08/08 10:28:40;;;;;;;0.20;0.20;;;;;;;;;;5094192;28;20461;-64
2021/08/08 10:31:07;;;;;;;0.20;0.20;;;;;;;;;;5094413;28;20808;-63
2021/08/08 10:33:45;;;;;;;0.20;0.20;;;;;;;;;;5094568;28;20368;-64
2021/08/08 10:36:28;;;;;;;0.20;0.20;;;;;;;;;;5094528;28;20408;-64
2021/08/08 10:39:10;;;;;;;0.20;0.20;;;;;;;;;;5093687;28;20497;-64
2021/08/08 10:41:37;;;;;;;0.20;0.20;;;;;;;;;;5094660;28;20382;-64
2021/08/08 10:44:07;;;;;;;0.20;0.20;;;;;;;;;;5092236;28;20461;-64
2021/08/08 10:46:43;;;;;;;0.20;0.20;;;;;;;;;;5094193;28;20456;-63
2021/08/08 10:49:09;;;;;;;0.20;0.20;;;;;;;;;;5093245;28;20975;-63
2021/08/08 10:51:35;;;;;;;0.20;0.20;;;;;;;;;;5094245;28;20440;-63
2021/08/08 10:54:04;;;;;;;0.20;0.20;;;;;;;;;;5094303;28;20813;-64
2021/08/08 10:56:50;;;;;;;0.20;0.20;;;;;;;;;;5093933;28;20405;-63
2021/08/08 10:59:18;;;;;;;0.30;0.30;;;;;;;;;;5093625;28;20406;-64
2021/08/08 11:01:45;;;;;;;0.20;0.20;;;;;;;;;;5093690;28;20430;-63
2021/08/08 11:04:11;;;;;;;0.30;0.30;;;;;;;;;;5094090;28;20399;-64
2021/08/08 11:06:37;;;;;;;0.20;0.20;;;;;;;;;;5093519;28;20476;-64
2021/08/08 11:09:04;;;;;;;0.20;0.20;;;;;;;;;;5092905;28;20868;-64
2021/08/08 11:11:34;;;;;;;0.20;0.20;;;;;;;;;;5093313;28;20401;-64
2021/08/08 11:14:11;;;;;;;0.20;0.20;;;;;;;;;;5093967;28;20494;-62
2021/08/08 11:16:38;;;;;;;0.20;0.20;;;;;;;;;;5093755;28;20899;-62
2021/08/08 11:19:04;;;;;;;0.20;0.20;;;;;;;;;;5093168;28;20464;-62
2021/08/08 11:21:30;;;;;;;0.20;0.20;;;;;;;;;;5093576;28;20821;-62
2021/08/08 11:23:57;;;;;;;0.20;0.20;;;;;;;;;;5093160;28;20763;-62
2021/08/08 11:26:23;;;;;;;0.30;0.20;;;;;;;;;;5093704;28;20898;-62
2021/08/08 11:29:00;;;;;;;0.30;0.20;;;;;;;;;;5093213;28;20430;-62
2021/08/08 11:31:28;;;;;;;0.30;0.20;;;;;;;;;;5093190;28;20428;-62
2021/08/08 11:33:55;;;;;;;0.30;0.20;;;;;;;;;;5093079;28;20405;-62
2021/08/08 11:36:33;;;;;;;0.40;0.20;;;;;;;;;;5093480;28;20415;-62
2021/08/08 11:38:59;;;;;;;0.30;0.20;;;;;;;;;;5093267;28;20436;-62
2021/08/08 11:41:26;;;;;;;0.30;0.20;;;;;;;;;;5093297;28;20406;-64
2021/08/08 11:44:24;;;;;;;0.30;0.20;;;;;;;;;;5092895;28;20474;-64
2021/08/08 11:46:56;;;;;;;0.30;0.20;;;;;;;;;;5048281;28;20511;-64
2021/08/08 11:49:26;;;;;;;0.30;0.20;;;;;;;;;;5093119;28;20408;-64
2021/08/08 11:52:02;;;;;;;0.20;0.20;;;;;;;;;;5093093;28;20900;-64
2021/08/08 11:54:29;;;;;;;0.20;0.20;;;;;;;;;;5092835;28;20946;-64
2021/08/08 11:56:56;;;;;;;0.20;0.20;;;;;;;;;;5091406;28;20375;-64
2021/08/08 11:59:26;;;;;;;0.20;0.20;;;;;;;;;;5092570;28;20890;-64
2021/08/08 12:02:00;;;;;;;0.20;0.20;;;;;;;;;;5092945;28;20400;-64
2021/08/08 12:04:26;;;;;;;0.20;0.20;;;;;;;;;;5092897;28;20772;-64
2021/08/08 12:06:53;;;;;;;0.20;0.20;;;;;;;;;;5092739;28;20483;-64
2021/08/08 12:09:20;;;;;;;0.30;0.30;;;;;;;;;;5092190;28;20415;-63
2021/08/08 12:11:51;;;;;;;0.20;0.20;;;;;;;;;;5092618;28;20850;-63
2021/08/08 12:14:28;;;;;;;0.30;0.30;;;;;;;;;;5092587;28;20384;-63
2021/08/08 12:16:59;;;;;;;0.30;0.30;;;;;;;;;;5092574;28;20485;-63
2021/08/08 12:19:28;;;;;;;2.00;0.30;;;;;;;;;;5091583;28;20440;-63
2021/08/08 12:22:00;;;;;;;2.30;0.30;;;;;;;;;;5090235;28;20455;-64
2021/08/08 12:24:31;;;;;;;2.43;0.40;;;;;;;;;;5091501;28;20408;-63
2021/08/08 12:26:57;;;;;;;2.53;0.30;;;;;;;;;;5091046;28;20982;-64
2021/08/08 12:29:29;;;;;;;2.57;0.30;;;;;;;;;;5091190;28;20375;-64
2021/08/08 12:32:04;;;;;;;2.60;0.30;;;;;;;;;;5092261;28;20469;-64
2021/08/08 12:34:30;;;;;;;2.90;0.30;;;;;;;;;;5092202;28;20397;-64
2021/08/08 12:37:02;;;;;;;3.13;0.40;;;;;;;;;;5092341;28;20408;-64
2021/08/08 12:39:28;;;;;;;3.40;0.37;;;;;;;;;;5092061;28;20482;-64
2021/08/08 12:41:54;;;;;;;3.50;0.40;;;;;;;;;;5091581;28;20415;-63
2021/08/08 12:44:30;;;;;;;3.70;0.40;;;;;;;;;;5091690;28;20906;-64
2021/08/08 12:47:00;;;;;;;3.70;0.40;;;;;;;;;;5091841;28;20823;-64
2021/08/08 12:49:32;;;;;;;3.87;0.30;;;;;;;;;;5091916;28;20398;-64
2021/08/08 12:51:58;;;;;;;4.30;0.40;;;;;;;;;;5091583;28;20454;-63
2021/08/08 12:54:24;;;;;;;4.50;0.30;;;;;;;;;;5092020;28;20432;-64
2021/08/08 12:56:50;;;;;;;5.23;0.40;;;;;;;;;;5091384;28;20879;-64
2021/08/08 12:59:16;;;;;;;5.60;0.40;;;;;;;;;;5091618;28;20407;-64
2021/08/08 13:01:42;;;;;;;5.87;0.40;;;;;;;;;;5091809;28;20929;-64
2021/08/08 13:04:11;;;;;;;4.27;0.40;;;;;;;;;;5090692;28;20389;-64
2021/08/08 13:06:37;;;;;;;4.50;0.30;;;;;;;;;;5090884;28;20427;-64
2021/08/08 13:09:03;;;;;;;4.40;0.40;;;;;;;;;;5091158;28;20927;-64
2021/08/08 13:11:32;;;;;;;5.53;0.40;;;;;;;;;;5091718;28;20491;-64
2021/08/08 13:13:59;;;;;;;2.10;0.30;;;;;;;;;;5091304;28;20414;-64
2021/08/08 13:16:25;;;;;;;2.60;0.30;;;;;;;;;;5091484;28;20410;-64
2021/08/08 13:18:51;;;;;;;2.80;0.30;;;;;;;;;;5091395;28;20467;-64
2021/08/08 13:21:17;;;;;;;2.70;0.30;;;;;;;;;;5091333;28;20795;-64
2021/08/08 13:23:44;;;;;;;2.70;0.30;;;;;;;;;;5091546;28;20383;-64
2021/08/08 13:26:10;;;;;;;2.80;0.30;;;;;;;;;;5090993;28;20441;-64
2021/08/08 13:28:36;;;;;;;2.70;0.30;;;;;;;;;;5091103;28;20511;-64
2021/08/08 13:31:03;;;;;;;2.80;0.30;;;;;;;;;;5091426;28;20817;-64
2021/08/08 13:33:30;;;;;;;2.90;0.30;;;;;;;;;;5091188;28;20428;-64
2021/08/08 13:35:56;;;;;;;2.60;0.30;;;;;;;;;;5091182;28;20379;-64
2021/08/08 13:38:22;;;;;;;2.80;0.30;;;;;;;;;;5090853;28;20493;-63
2021/08/08 13:40:48;;;;;;;2.70;0.30;;;;;;;;;;5091302;28;20487;-64
2021/08/08 13:43:14;;;;;;;2.80;0.30;;;;;;;;;;5091139;28;20447;-63
2021/08/08 13:45:40;;;;;;;2.67;0.30;;;;;;;;;;5090950;28;20939;-64
2021/08/08 13:48:06;;;;;;;2.80;0.40;;;;;;;;;;5090670;28;20470;-63
2021/08/08 13:50:32;;;;;;;2.80;0.30;;;;;;;;;;5091069;28;20412;-64
2021/08/08 13:52:58;;;;;;;2.63;0.40;;;;;;;;;;5090537;28;20742;-63
2021/08/08 13:55:25;;;;;;;2.80;0.40;;;;;;;;;;5089378;28;20383;-63
2021/08/08 13:57:51;;;;;;;2.10;0.30;;;;;;;;;;5090193;28;20502;-63
2021/08/08 14:00:18;;;;;;;2.20;0.30;;;;;;;;;;5090507;28;20790;-64
2021/08/08 14:02:44;;;;;;;2.27;0.33;;;;;;;;;;5091226;28;20416;-64
2021/08/08 14:05:11;;;;;;;2.40;0.30;;;;;;;;;;5091324;28;20432;-64
2021/08/08 14:07:38;;;;;;;2.60;0.30;;;;;;;;;;5089394;28;20500;-63
2021/08/08 14:10:04;;;;;;;2.70;0.30;;;;;;;;;;5090802;28;20408;-63
2021/08/08 14:12:30;;;;;;;2.80;0.40;;;;;;;;;;5090906;28;20834;-64
2021/08/08 14:14:56;;;;;;;2.77;0.30;;;;;;;;;;5091123;28;20387;-63
2021/08/08 14:17:22;;;;;;;2.73;0.40;;;;;;;;;;5090674;28;20512;-63
2021/08/08 14:19:48;;;;;;;2.80;0.40;;;;;;;;;;5093535;28;20925;-64
2021/08/08 14:22:15;;;;;;;2.80;0.30;;;;;;;;;;5094736;28;20491;-64
2021/08/08 14:24:41;;;;;;;3.00;0.30;;;;;;;;;;5094728;28;20783;-63
2021/08/08 14:27:07;;;;;;;3.00;0.30;;;;;;;;;;5092806;28;21016;-64
2021/08/08 14:29:33;;;;;;;3.00;0.40;;;;;;;;;;5091735;28;20440;-63
2021/08/08 14:31:59;;;;;;;3.00;0.40;;;;;;;;;;5093641;28;20475;-63
2021/08/08 14:34:25;;;;;;;2.97;0.30;;;;;;;;;;5092424;28;20435;-64
2021/08/08 14:36:51;;;;;;;2.10;0.30;;;;;;;;;;5091756;28;20499;-64
2021/08/08 14:39:17;;;;;;;2.10;0.30;;;;;;;;;;5075055;28;20413;-64
2021/08/08 14:41:43;;;;;;;2.10;0.30;;;;;;;;;;5094233;28;20383;-64